sensor_id;sensor_type;location;lat;lon;timestamp;P1;durP1;ratioP1;P2;durP2;ratioP2
42260;SDS011;27926;48.062;7.474;2022-07-06T00:01:20;1.25;;;1.13;;
42260;SDS011;27926;48.062;7.474;2022-07-06T00:03:44;0.95;;;0.73;;
42260;SDS011;27926;48.062;7.474;2022-07-06T00:06:09;2.33;;;0.85;;
42260;SDS011;27926;48.062;7.474;2022-07-06T00:08:34;1.25;;;0.55;;
42260;SDS011;27926;48.062;7.474;2022-07-06T00:10:59;1.88;;;0.70;;
42260;SDS011;27926;48.062;7.474;2022-07-06T00:13:24;2.83;;;1.27;;
42260;SDS011;27926;48.062;7.474;2022-07-06T00:15:48;3.65;;;1.27;;
42260;SDS011;27926;48.062;7.474;2022-07-06T00:18:13;0.98;;;0.73;;
42260;SDS011;27926;48.062;7.474;2022-07-06T00:20:38;2.10;;;1.23;;
42260;SDS011;27926;48.062;7.474;2022-07-06T00:23:02;5.97;;;1.38;;
42260;SDS011;27926;48.062;7.474;2022-07-06T00:25:27;1.50;;;1.25;;
42260;SDS011;27926;48.062;7.474;2022-07-06T00:27:51;2.42;;;0.90;;
42260;SDS011;27926;48.062;7.474;2022-07-06T00:30:16;2.70;;;0.90;;
42260;SDS011;27926;48.062;7.474;2022-07-06T00:32:41;2.63;;;1.15;;
42260;SDS011;27926;48.062;7.474;2022-07-06T00:35:05;7.97;;;1.25;;
42260;SDS011;27926;48.062;7.474;2022-07-06T00:37:30;2.58;;;1.25;;
42260;SDS011;27926;48.062;7.474;2022-07-06T00:39:55;3.03;;;1.15;;
42260;SDS011;27926;48.062;7.474;2022-07-06T00:42:20;3.47;;;1.55;;
42260;SDS011;27926;48.062;7.474;2022-07-06T00:44:44;5.85;;;1.15;;
42260;SDS011;27926;48.062;7.474;2022-07-06T00:47:09;1.23;;;0.88;;
42260;SDS011;27926;48.062;7.474;2022-07-06T00:49:33;2.72;;;1.10;;
42260;SDS011;27926;48.062;7.474;2022-07-06T00:52:17;4.85;;;1.23;;
42260;SDS011;27926;48.062;7.474;2022-07-06T00:54:42;3.50;;;1.05;;
42260;SDS011;27926;48.062;7.474;2022-07-06T00:57:07;1.10;;;0.90;;
42260;SDS011;27926;48.062;7.474;2022-07-06T00:59:35;6.07;;;1.23;;
42260;SDS011;27926;48.062;7.474;2022-07-06T01:01:59;2.80;;;1.02;;
42260;SDS011;27926;48.062;7.474;2022-07-06T01:04:24;1.63;;;1.02;;
42260;SDS011;27926;48.062;7.474;2022-07-06T01:06:49;2.25;;;0.82;;
42260;SDS011;27926;48.062;7.474;2022-07-06T01:09:13;3.13;;;1.23;;
42260;SDS011;27926;48.062;7.474;2022-07-06T01:11:39;7.38;;;1.33;;
42260;SDS011;27926;48.062;7.474;2022-07-06T01:14:03;1.30;;;0.77;;
42260;SDS011;27926;48.062;7.474;2022-07-06T01:16:29;2.65;;;1.20;;
42260;SDS011;27926;48.062;7.474;2022-07-06T01:18:54;2.30;;;1.13;;
42260;SDS011;27926;48.062;7.474;2022-07-06T01:21:18;0.77;;;0.77;;
42260;SDS011;27926;48.062;7.474;2022-07-06T01:23:44;1.05;;;0.95;;
42260;SDS011;27926;48.062;7.474;2022-07-06T01:26:11;3.42;;;1.98;;
42260;SDS011;27926;48.062;7.474;2022-07-06T01:28:37;2.70;;;1.15;;
42260;SDS011;27926;48.062;7.474;2022-07-06T01:31:02;4.82;;;1.10;;
42260;SDS011;27926;48.062;7.474;2022-07-06T01:33:27;2.95;;;1.02;;
42260;SDS011;27926;48.062;7.474;2022-07-06T01:35:51;2.58;;;1.17;;
42260;SDS011;27926;48.062;7.474;2022-07-06T01:38:16;2.25;;;1.45;;
42260;SDS011;27926;48.062;7.474;2022-07-06T01:40:41;1.20;;;1.08;;
42260;SDS011;27926;48.062;7.474;2022-07-06T01:43:05;1.60;;;1.02;;
42260;SDS011;27926;48.062;7.474;2022-07-06T01:45:31;1.67;;;0.93;;
42260;SDS011;27926;48.062;7.474;2022-07-06T01:47:56;2.35;;;0.82;;
42260;SDS011;27926;48.062;7.474;2022-07-06T01:50:21;2.75;;;1.27;;
42260;SDS011;27926;48.062;7.474;2022-07-06T01:52:45;1.08;;;0.98;;
42260;SDS011;27926;48.062;7.474;2022-07-06T01:55:10;4.70;;;1.48;;
42260;SDS011;27926;48.062;7.474;2022-07-06T01:57:34;3.58;;;1.25;;
42260;SDS011;27926;48.062;7.474;2022-07-06T01:59:59;1.05;;;0.82;;
42260;SDS011;27926;48.062;7.474;2022-07-06T02:02:24;2.58;;;1.20;;
42260;SDS011;27926;48.062;7.474;2022-07-06T02:04:48;4.95;;;1.75;;
42260;SDS011;27926;48.062;7.474;2022-07-06T02:07:13;2.65;;;1.00;;
42260;SDS011;27926;48.062;7.474;2022-07-06T02:09:37;0.77;;;0.77;;
42260;SDS011;27926;48.062;7.474;2022-07-06T02:12:02;6.60;;;1.20;;
42260;SDS011;27926;48.062;7.474;2022-07-06T02:14:27;5.53;;;1.02;;
42260;SDS011;27926;48.062;7.474;2022-07-06T02:16:52;2.63;;;1.13;;
42260;SDS011;27926;48.062;7.474;2022-07-06T02:19:16;1.85;;;1.35;;
42260;SDS011;27926;48.062;7.474;2022-07-06T02:21:41;1.40;;;1.00;;
42260;SDS011;27926;48.062;7.474;2022-07-06T02:24:06;1.83;;;1.13;;
42260;SDS011;27926;48.062;7.474;2022-07-06T02:26:30;2.83;;;1.17;;
42260;SDS011;27926;48.062;7.474;2022-07-06T02:28:55;2.03;;;1.23;;
42260;SDS011;27926;48.062;7.474;2022-07-06T02:31:20;3.13;;;1.45;;
42260;SDS011;27926;48.062;7.474;2022-07-06T02:33:44;2.08;;;1.15;;
42260;SDS011;27926;48.062;7.474;2022-07-06T02:36:09;2.63;;;1.30;;
42260;SDS011;27926;48.062;7.474;2022-07-06T02:38:34;3.10;;;1.23;;
42260;SDS011;27926;48.062;7.474;2022-07-06T02:40:59;1.67;;;1.27;;
42260;SDS011;27926;48.062;7.474;2022-07-06T02:43:24;6.32;;;1.10;;
42260;SDS011;27926;48.062;7.474;2022-07-06T02:45:48;3.97;;;1.40;;
42260;SDS011;27926;48.062;7.474;2022-07-06T02:48:13;1.00;;;0.90;;
42260;SDS011;27926;48.062;7.474;2022-07-06T02:50:37;4.65;;;1.00;;
42260;SDS011;27926;48.062;7.474;2022-07-06T02:53:02;3.33;;;1.25;;
42260;SDS011;27926;48.062;7.474;2022-07-06T02:55:27;1.45;;;0.80;;
42260;SDS011;27926;48.062;7.474;2022-07-06T02:57:51;1.65;;;1.02;;
42260;SDS011;27926;48.062;7.474;2022-07-06T03:00:16;3.47;;;0.95;;
42260;SDS011;27926;48.062;7.474;2022-07-06T03:02:41;1.83;;;1.10;;
42260;SDS011;27926;48.062;7.474;2022-07-06T03:05:06;1.00;;;0.90;;
42260;SDS011;27926;48.062;7.474;2022-07-06T03:07:31;2.13;;;0.97;;
42260;SDS011;27926;48.062;7.474;2022-07-06T03:09:55;0.93;;;0.82;;
42260;SDS011;27926;48.062;7.474;2022-07-06T03:12:20;1.83;;;1.00;;
42260;SDS011;27926;48.062;7.474;2022-07-06T03:14:45;2.38;;;1.30;;
42260;SDS011;27926;48.062;7.474;2022-07-06T03:17:10;2.60;;;1.20;;
42260;SDS011;27926;48.062;7.474;2022-07-06T03:19:34;2.15;;;0.73;;
42260;SDS011;27926;48.062;7.474;2022-07-06T03:21:59;4.95;;;1.30;;
42260;SDS011;27926;48.062;7.474;2022-07-06T03:24:24;5.10;;;1.17;;
42260;SDS011;27926;48.062;7.474;2022-07-06T03:26:48;1.20;;;1.02;;
42260;SDS011;27926;48.062;7.474;2022-07-06T03:29:13;3.88;;;1.20;;
42260;SDS011;27926;48.062;7.474;2022-07-06T03:31:37;1.73;;;1.30;;
42260;SDS011;27926;48.062;7.474;2022-07-06T03:34:02;5.10;;;1.73;;
42260;SDS011;27926;48.062;7.474;2022-07-06T03:36:27;2.45;;;1.38;;
42260;SDS011;27926;48.062;7.474;2022-07-06T03:38:51;3.30;;;1.73;;
42260;SDS011;27926;48.062;7.474;2022-07-06T03:41:16;2.85;;;1.45;;
42260;SDS011;27926;48.062;7.474;2022-07-06T03:43:41;4.35;;;2.05;;
42260;SDS011;27926;48.062;7.474;2022-07-06T03:46:05;3.67;;;1.63;;
42260;SDS011;27926;48.062;7.474;2022-07-06T03:48:30;3.15;;;1.65;;
42260;SDS011;27926;48.062;7.474;2022-07-06T03:50:54;5.82;;;1.65;;
42260;SDS011;27926;48.062;7.474;2022-07-06T03:53:19;4.13;;;1.42;;
42260;SDS011;27926;48.062;7.474;2022-07-06T03:55:44;3.28;;;1.60;;
42260;SDS011;27926;48.062;7.474;2022-07-06T03:58:28;3.40;;;1.95;;
42260;SDS011;27926;48.062;7.474;2022-07-06T04:00:53;3.05;;;1.55;;
42260;SDS011;27926;48.062;7.474;2022-07-06T04:03:17;1.77;;;1.27;;
42260;SDS011;27926;48.062;7.474;2022-07-06T04:05:42;2.60;;;1.80;;
42260;SDS011;27926;48.062;7.474;2022-07-06T04:08:07;4.40;;;1.85;;
42260;SDS011;27926;48.062;7.474;2022-07-06T04:10:31;3.42;;;1.58;;
42260;SDS011;27926;48.062;7.474;2022-07-06T04:12:56;3.60;;;2.03;;
42260;SDS011;27926;48.062;7.474;2022-07-06T04:15:20;4.63;;;2.13;;
42260;SDS011;27926;48.062;7.474;2022-07-06T04:17:45;4.60;;;2.10;;
42260;SDS011;27926;48.062;7.474;2022-07-06T04:20:15;5.68;;;1.95;;
42260;SDS011;27926;48.062;7.474;2022-07-06T04:22:40;10.38;;;2.88;;
42260;SDS011;27926;48.062;7.474;2022-07-06T04:25:05;10.07;;;2.45;;
42260;SDS011;27926;48.062;7.474;2022-07-06T04:27:29;3.72;;;1.73;;
42260;SDS011;27926;48.062;7.474;2022-07-06T04:29:54;6.07;;;2.65;;
42260;SDS011;27926;48.062;7.474;2022-07-06T04:32:19;3.95;;;2.20;;
42260;SDS011;27926;48.062;7.474;2022-07-06T04:34:43;4.32;;;2.35;;
42260;SDS011;27926;48.062;7.474;2022-07-06T04:37:08;3.13;;;2.38;;
42260;SDS011;27926;48.062;7.474;2022-07-06T04:39:33;2.58;;;2.10;;
42260;SDS011;27926;48.062;7.474;2022-07-06T04:41:57;2.88;;;1.80;;
42260;SDS011;27926;48.062;7.474;2022-07-06T04:44:22;6.57;;;1.77;;
42260;SDS011;27926;48.062;7.474;2022-07-06T04:46:46;3.88;;;1.83;;
42260;SDS011;27926;48.062;7.474;2022-07-06T04:49:11;11.68;;;1.75;;
42260;SDS011;27926;48.062;7.474;2022-07-06T04:51:36;1.95;;;1.55;;
42260;SDS011;27926;48.062;7.474;2022-07-06T04:54:00;6.00;;;1.23;;
42260;SDS011;27926;48.062;7.474;2022-07-06T04:56:25;8.30;;;1.80;;
42260;SDS011;27926;48.062;7.474;2022-07-06T04:58:50;1.55;;;1.42;;
42260;SDS011;27926;48.062;7.474;2022-07-06T05:01:14;2.43;;;1.43;;
42260;SDS011;27926;48.062;7.474;2022-07-06T05:03:39;1.90;;;1.10;;
42260;SDS011;27926;48.062;7.474;2022-07-06T05:06:05;2.88;;;1.75;;
42260;SDS011;27926;48.062;7.474;2022-07-06T05:08:30;2.90;;;1.50;;
42260;SDS011;27926;48.062;7.474;2022-07-06T05:10:55;4.27;;;2.03;;
42260;SDS011;27926;48.062;7.474;2022-07-06T05:13:19;6.03;;;1.90;;
42260;SDS011;27926;48.062;7.474;2022-07-06T05:15:44;2.35;;;1.52;;
42260;SDS011;27926;48.062;7.474;2022-07-06T05:18:09;3.07;;;1.70;;
42260;SDS011;27926;48.062;7.474;2022-07-06T05:20:34;5.80;;;2.03;;
42260;SDS011;27926;48.062;7.474;2022-07-06T05:22:58;2.40;;;1.90;;
42260;SDS011;27926;48.062;7.474;2022-07-06T05:25:23;7.60;;;2.23;;
42260;SDS011;27926;48.062;7.474;2022-07-06T05:27:48;8.43;;;2.43;;
42260;SDS011;27926;48.062;7.474;2022-07-06T05:30:12;15.23;;;2.50;;
42260;SDS011;27926;48.062;7.474;2022-07-06T05:32:39;4.25;;;2.35;;
42260;SDS011;27926;48.062;7.474;2022-07-06T05:35:04;5.40;;;2.37;;
42260;SDS011;27926;48.062;7.474;2022-07-06T05:37:29;4.45;;;2.10;;
42260;SDS011;27926;48.062;7.474;2022-07-06T05:39:54;4.93;;;2.17;;
42260;SDS011;27926;48.062;7.474;2022-07-06T05:42:18;5.77;;;1.97;;
42260;SDS011;27926;48.062;7.474;2022-07-06T05:44:43;7.33;;;1.70;;
42260;SDS011;27926;48.062;7.474;2022-07-06T05:47:07;4.70;;;2.37;;
42260;SDS011;27926;48.062;7.474;2022-07-06T05:49:50;1.98;;;1.52;;
42260;SDS011;27926;48.062;7.474;2022-07-06T05:52:33;4.63;;;2.13;;
42260;SDS011;27926;48.062;7.474;2022-07-06T05:54:58;3.07;;;1.97;;
42260;SDS011;27926;48.062;7.474;2022-07-06T05:57:23;3.20;;;2.00;;
42260;SDS011;27926;48.062;7.474;2022-07-06T05:59:47;4.13;;;2.37;;
42260;SDS011;27926;48.062;7.474;2022-07-06T06:02:12;4.13;;;2.30;;
42260;SDS011;27926;48.062;7.474;2022-07-06T06:04:36;2.43;;;1.97;;
42260;SDS011;27926;48.062;7.474;2022-07-06T06:07:01;4.40;;;2.00;;
42260;SDS011;27926;48.062;7.474;2022-07-06T06:09:26;6.60;;;2.50;;
42260;SDS011;27926;48.062;7.474;2022-07-06T06:11:50;4.70;;;1.83;;
42260;SDS011;27926;48.062;7.474;2022-07-06T06:14:15;5.33;;;2.20;;
42260;SDS011;27926;48.062;7.474;2022-07-06T06:16:39;4.33;;;2.00;;
42260;SDS011;27926;48.062;7.474;2022-07-06T06:19:04;3.60;;;2.20;;
42260;SDS011;27926;48.062;7.474;2022-07-06T06:21:29;6.03;;;2.10;;
42260;SDS011;27926;48.062;7.474;2022-07-06T06:23:53;5.20;;;3.07;;
42260;SDS011;27926;48.062;7.474;2022-07-06T06:26:18;4.50;;;1.87;;
42260;SDS011;27926;48.062;7.474;2022-07-06T06:28:44;7.50;;;2.20;;
42260;SDS011;27926;48.062;7.474;2022-07-06T06:31:08;4.03;;;1.85;;
42260;SDS011;27926;48.062;7.474;2022-07-06T06:33:33;3.63;;;2.30;;
42260;SDS011;27926;48.062;7.474;2022-07-06T06:35:58;9.50;;;2.10;;
42260;SDS011;27926;48.062;7.474;2022-07-06T06:38:22;4.23;;;2.10;;
42260;SDS011;27926;48.062;7.474;2022-07-06T06:40:50;7.43;;;2.53;;
42260;SDS011;27926;48.062;7.474;2022-07-06T06:43:15;2.30;;;1.63;;
42260;SDS011;27926;48.062;7.474;2022-07-06T06:45:40;4.00;;;1.77;;
42260;SDS011;27926;48.062;7.474;2022-07-06T06:48:04;5.50;;;1.60;;
42260;SDS011;27926;48.062;7.474;2022-07-06T06:50:29;3.30;;;1.80;;
42260;SDS011;27926;48.062;7.474;2022-07-06T06:52:54;4.00;;;1.90;;
42260;SDS011;27926;48.062;7.474;2022-07-06T06:55:18;5.67;;;2.23;;
42260;SDS011;27926;48.062;7.474;2022-07-06T06:57:43;4.17;;;1.70;;
42260;SDS011;27926;48.062;7.474;2022-07-06T07:00:08;5.88;;;1.95;;
42260;SDS011;27926;48.062;7.474;2022-07-06T07:02:34;10.52;;;1.90;;
42260;SDS011;27926;48.062;7.474;2022-07-06T07:04:58;6.03;;;2.28;;
42260;SDS011;27926;48.062;7.474;2022-07-06T07:07:23;5.73;;;2.27;;
42260;SDS011;27926;48.062;7.474;2022-07-06T07:09:48;3.10;;;1.80;;
42260;SDS011;27926;48.062;7.474;2022-07-06T07:12:12;2.05;;;1.58;;
42260;SDS011;27926;48.062;7.474;2022-07-06T07:14:39;6.15;;;2.63;;
42260;SDS011;27926;48.062;7.474;2022-07-06T07:17:03;8.03;;;2.37;;
42260;SDS011;27926;48.062;7.474;2022-07-06T07:19:28;5.35;;;1.92;;
42260;SDS011;27926;48.062;7.474;2022-07-06T07:21:52;5.10;;;1.67;;
42260;SDS011;27926;48.062;7.474;2022-07-06T07:24:17;4.80;;;2.10;;
42260;SDS011;27926;48.062;7.474;2022-07-06T07:26:42;6.55;;;1.73;;
42260;SDS011;27926;48.062;7.474;2022-07-06T07:29:06;2.57;;;2.00;;
42260;SDS011;27926;48.062;7.474;2022-07-06T07:31:31;3.95;;;1.67;;
42260;SDS011;27926;48.062;7.474;2022-07-06T07:33:56;4.82;;;2.38;;
42260;SDS011;27926;48.062;7.474;2022-07-06T07:36:22;2.17;;;1.85;;
42260;SDS011;27926;48.062;7.474;2022-07-06T07:38:48;8.65;;;2.38;;
42260;SDS011;27926;48.062;7.474;2022-07-06T07:41:12;7.25;;;2.78;;
42260;SDS011;27926;48.062;7.474;2022-07-06T07:43:38;7.03;;;1.90;;
42260;SDS011;27926;48.062;7.474;2022-07-06T07:46:02;8.80;;;2.50;;
42260;SDS011;27926;48.062;7.474;2022-07-06T07:48:27;7.47;;;2.20;;
42260;SDS011;27926;48.062;7.474;2022-07-06T07:50:52;1.67;;;1.58;;
42260;SDS011;27926;48.062;7.474;2022-07-06T07:53:16;3.00;;;1.80;;
42260;SDS011;27926;48.062;7.474;2022-07-06T07:55:41;4.53;;;2.10;;
42260;SDS011;27926;48.062;7.474;2022-07-06T07:58:06;8.35;;;1.98;;
42260;SDS011;27926;48.062;7.474;2022-07-06T08:00:30;3.27;;;2.00;;
42260;SDS011;27926;48.062;7.474;2022-07-06T08:02:55;4.32;;;1.83;;
42260;SDS011;27926;48.062;7.474;2022-07-06T08:07:46;2.47;;;1.85;;
42260;SDS011;27926;48.062;7.474;2022-07-06T08:10:10;2.17;;;1.70;;
42260;SDS011;27926;48.062;7.474;2022-07-06T08:12:36;9.13;;;1.93;;
42260;SDS011;27926;48.062;7.474;2022-07-06T08:15:00;3.78;;;2.45;;
42260;SDS011;27926;48.062;7.474;2022-07-06T08:17:28;6.53;;;2.20;;
42260;SDS011;27926;48.062;7.474;2022-07-06T08:19:53;3.58;;;1.80;;
42260;SDS011;27926;48.062;7.474;2022-07-06T08:22:18;2.40;;;1.87;;
42260;SDS011;27926;48.062;7.474;2022-07-06T08:24:42;6.73;;;2.40;;
42260;SDS011;27926;48.062;7.474;2022-07-06T08:27:07;6.60;;;2.07;;
42260;SDS011;27926;48.062;7.474;2022-07-06T08:29:32;2.37;;;1.80;;
42260;SDS011;27926;48.062;7.474;2022-07-06T08:31:57;3.47;;;1.50;;
42260;SDS011;27926;48.062;7.474;2022-07-06T08:34:22;5.60;;;1.83;;
42260;SDS011;27926;48.062;7.474;2022-07-06T08:36:47;5.00;;;1.60;;
42260;SDS011;27926;48.062;7.474;2022-07-06T08:39:11;3.97;;;1.75;;
42260;SDS011;27926;48.062;7.474;2022-07-06T08:41:36;3.17;;;1.93;;
42260;SDS011;27926;48.062;7.474;2022-07-06T08:44:04;5.85;;;1.58;;
42260;SDS011;27926;48.062;7.474;2022-07-06T08:46:30;3.78;;;1.95;;
42260;SDS011;27926;48.062;7.474;2022-07-06T08:48:55;4.47;;;1.98;;
42260;SDS011;27926;48.062;7.474;2022-07-06T08:51:21;5.38;;;1.50;;
42260;SDS011;27926;48.062;7.474;2022-07-06T08:53:48;3.65;;;1.92;;
42260;SDS011;27926;48.062;7.474;2022-07-06T08:58:38;9.02;;;2.13;;
42260;SDS011;27926;48.062;7.474;2022-07-06T09:01:05;4.07;;;1.58;;
42260;SDS011;27926;48.062;7.474;2022-07-06T09:03:30;2.10;;;1.57;;
42260;SDS011;27926;48.062;7.474;2022-07-06T09:05:56;3.10;;;1.80;;
42260;SDS011;27926;48.062;7.474;2022-07-06T09:08:24;3.03;;;1.73;;
42260;SDS011;27926;48.062;7.474;2022-07-06T09:10:51;3.95;;;2.15;;
42260;SDS011;27926;48.062;7.474;2022-07-06T09:13:15;5.07;;;1.70;;
42260;SDS011;27926;48.062;7.474;2022-07-06T09:15:40;2.97;;;1.47;;
42260;SDS011;27926;48.062;7.474;2022-07-06T09:18:05;3.15;;;1.65;;
42260;SDS011;27926;48.062;7.474;2022-07-06T09:20:30;3.00;;;1.50;;
42260;SDS011;27926;48.062;7.474;2022-07-06T09:22:59;4.00;;;1.42;;
42260;SDS011;27926;48.062;7.474;2022-07-06T09:25:25;4.28;;;1.75;;
42260;SDS011;27926;48.062;7.474;2022-07-06T09:27:50;8.52;;;1.77;;
42260;SDS011;27926;48.062;7.474;2022-07-06T09:30:18;11.15;;;1.90;;
42260;SDS011;27926;48.062;7.474;2022-07-06T09:32:43;2.07;;;1.17;;
42260;SDS011;27926;48.062;7.474;2022-07-06T09:35:20;6.03;;;2.22;;
42260;SDS011;27926;48.062;7.474;2022-07-06T09:40:30;5.60;;;1.40;;
42260;SDS011;27926;48.062;7.474;2022-07-06T09:43:18;3.65;;;1.17;;
42260;SDS011;27926;48.062;7.474;2022-07-06T09:45:44;5.50;;;1.67;;
42260;SDS011;27926;48.062;7.474;2022-07-06T09:48:17;3.00;;;1.52;;
42260;SDS011;27926;48.062;7.474;2022-07-06T09:50:46;4.72;;;1.67;;
42260;SDS011;27926;48.062;7.474;2022-07-06T09:53:30;2.08;;;1.35;;
42260;SDS011;27926;48.062;7.474;2022-07-06T09:55:56;1.70;;;1.10;;
42260;SDS011;27926;48.062;7.474;2022-07-06T09:58:25;4.78;;;1.67;;
42260;SDS011;27926;48.062;7.474;2022-07-06T10:00:50;2.30;;;1.60;;
42260;SDS011;27926;48.062;7.474;2022-07-06T10:03:15;5.33;;;1.50;;
42260;SDS011;27926;48.062;7.474;2022-07-06T10:05:42;2.35;;;1.58;;
42260;SDS011;27926;48.062;7.474;2022-07-06T10:08:10;3.05;;;1.30;;
42260;SDS011;27926;48.062;7.474;2022-07-06T10:10:35;2.67;;;1.37;;
42260;SDS011;27926;48.062;7.474;2022-07-06T10:13:00;5.82;;;1.90;;
42260;SDS011;27926;48.062;7.474;2022-07-06T10:15:27;2.50;;;1.20;;
42260;SDS011;27926;48.062;7.474;2022-07-06T10:17:55;6.15;;;1.80;;
42260;SDS011;27926;48.062;7.474;2022-07-06T10:20:21;7.37;;;1.63;;
42260;SDS011;27926;48.062;7.474;2022-07-06T10:22:49;1.67;;;1.30;;
42260;SDS011;27926;48.062;7.474;2022-07-06T10:25:17;4.50;;;1.45;;
42260;SDS011;27926;48.062;7.474;2022-07-06T10:27:42;3.45;;;1.60;;
42260;SDS011;27926;48.062;7.474;2022-07-06T10:30:09;3.03;;;1.65;;
42260;SDS011;27926;48.062;7.474;2022-07-06T10:32:34;1.63;;;1.33;;
42260;SDS011;27926;48.062;7.474;2022-07-06T10:35:01;2.13;;;1.52;;
42260;SDS011;27926;48.062;7.474;2022-07-06T10:37:26;1.30;;;1.13;;
42260;SDS011;27926;48.062;7.474;2022-07-06T10:50:34;4.53;;;1.10;;
42260;SDS011;27926;48.062;7.474;2022-07-06T10:52:59;5.60;;;1.50;;
42260;SDS011;27926;48.062;7.474;2022-07-06T10:55:27;2.97;;;1.53;;
42260;SDS011;27926;48.062;7.474;2022-07-06T10:57:56;5.07;;;2.05;;
42260;SDS011;27926;48.062;7.474;2022-07-06T11:00:21;1.93;;;1.30;;
42260;SDS011;27926;48.062;7.474;2022-07-06T11:02:46;6.87;;;1.43;;
42260;SDS011;27926;48.062;7.474;2022-07-06T11:05:11;1.93;;;1.30;;
42260;SDS011;27926;48.062;7.474;2022-07-06T11:07:51;2.92;;;1.40;;
42260;SDS011;27926;48.062;7.474;2022-07-06T11:10:15;5.80;;;1.50;;
42260;SDS011;27926;48.062;7.474;2022-07-06T11:12:44;1.90;;;1.27;;
42260;SDS011;27926;48.062;7.474;2022-07-06T11:15:09;3.40;;;1.20;;
42260;SDS011;27926;48.062;7.474;2022-07-06T11:17:34;2.30;;;1.70;;
42260;SDS011;27926;48.062;7.474;2022-07-06T11:20:08;9.13;;;1.50;;
42260;SDS011;27926;48.062;7.474;2022-07-06T11:22:35;2.05;;;1.33;;
42260;SDS011;27926;48.062;7.474;2022-07-06T11:25:00;6.43;;;1.25;;
42260;SDS011;27926;48.062;7.474;2022-07-06T11:27:25;7.83;;;1.63;;
42260;SDS011;27926;48.062;7.474;2022-07-06T11:29:50;3.00;;;1.30;;
42260;SDS011;27926;48.062;7.474;2022-07-06T11:32:15;3.67;;;1.65;;
42260;SDS011;27926;48.062;7.474;2022-07-06T11:34:47;3.75;;;1.35;;
42260;SDS011;27926;48.062;7.474;2022-07-06T11:37:13;3.37;;;1.40;;
42260;SDS011;27926;48.062;7.474;2022-07-06T11:39:39;7.40;;;1.33;;
42260;SDS011;27926;48.062;7.474;2022-07-06T11:42:08;2.33;;;1.30;;
42260;SDS011;27926;48.062;7.474;2022-07-06T11:44:34;1.38;;;1.20;;
42260;SDS011;27926;48.062;7.474;2022-07-06T11:46:59;4.80;;;1.52;;
42260;SDS011;27926;48.062;7.474;2022-07-06T11:49:26;1.83;;;1.40;;
42260;SDS011;27926;48.062;7.474;2022-07-06T11:51:51;2.47;;;1.33;;
42260;SDS011;27926;48.062;7.474;2022-07-06T11:54:16;1.37;;;1.10;;
42260;SDS011;27926;48.062;7.474;2022-07-06T11:56:52;5.57;;;1.40;;
42260;SDS011;27926;48.062;7.474;2022-07-06T11:59:23;4.93;;;1.55;;
42260;SDS011;27926;48.062;7.474;2022-07-06T12:02:01;1.67;;;1.20;;
42260;SDS011;27926;48.062;7.474;2022-07-06T12:04:31;3.80;;;1.63;;
42260;SDS011;27926;48.062;7.474;2022-07-06T12:07:04;2.72;;;1.25;;
42260;SDS011;27926;48.062;7.474;2022-07-06T12:09:31;7.80;;;1.60;;
42260;SDS011;27926;48.062;7.474;2022-07-06T12:11:57;2.90;;;1.70;;
42260;SDS011;27926;48.062;7.474;2022-07-06T12:14:22;4.80;;;1.40;;
42260;SDS011;27926;48.062;7.474;2022-07-06T12:16:47;1.77;;;1.30;;
42260;SDS011;27926;48.062;7.474;2022-07-06T12:19:13;4.70;;;1.30;;
42260;SDS011;27926;48.062;7.474;2022-07-06T12:21:42;5.22;;;1.90;;
42260;SDS011;27926;48.062;7.474;2022-07-06T12:24:21;3.88;;;1.35;;
42260;SDS011;27926;48.062;7.474;2022-07-06T12:26:47;3.10;;;1.25;;
42260;SDS011;27926;48.062;7.474;2022-07-06T12:29:12;1.80;;;1.17;;
42260;SDS011;27926;48.062;7.474;2022-07-06T12:34:18;2.25;;;1.50;;
42260;SDS011;27926;48.062;7.474;2022-07-06T12:36:54;4.55;;;1.30;;
42260;SDS011;27926;48.062;7.474;2022-07-06T12:39:21;12.90;;;1.48;;
42260;SDS011;27926;48.062;7.474;2022-07-06T12:41:50;5.60;;;1.40;;
42260;SDS011;27926;48.062;7.474;2022-07-06T12:44:20;5.97;;;2.03;;
42260;SDS011;27926;48.062;7.474;2022-07-06T12:46:46;1.70;;;1.10;;
42260;SDS011;27926;48.062;7.474;2022-07-06T12:54:45;8.07;;;1.38;;
42260;SDS011;27926;48.062;7.474;2022-07-06T12:57:16;7.63;;;1.38;;
42260;SDS011;27926;48.062;7.474;2022-07-06T12:59:43;1.77;;;1.40;;
42260;SDS011;27926;48.062;7.474;2022-07-06T13:02:24;7.80;;;2.03;;
42260;SDS011;27926;48.062;7.474;2022-07-06T13:07:26;4.15;;;1.10;;
42260;SDS011;27926;48.062;7.474;2022-07-06T13:09:52;2.78;;;1.30;;
42260;SDS011;27926;48.062;7.474;2022-07-06T13:12:18;1.33;;;1.00;;
42260;SDS011;27926;48.062;7.474;2022-07-06T13:14:43;2.77;;;1.47;;
42260;SDS011;27926;48.062;7.474;2022-07-06T13:17:07;3.23;;;1.20;;
42260;SDS011;27926;48.062;7.474;2022-07-06T13:19:32;2.93;;;1.23;;
42260;SDS011;27926;48.062;7.474;2022-07-06T13:21:57;2.70;;;1.77;;
42260;SDS011;27926;48.062;7.474;2022-07-06T13:24:21;1.60;;;1.50;;
42260;SDS011;27926;48.062;7.474;2022-07-06T13:26:46;2.77;;;1.30;;
42260;SDS011;27926;48.062;7.474;2022-07-06T13:29:11;4.53;;;1.37;;
42260;SDS011;27926;48.062;7.474;2022-07-06T13:31:36;3.45;;;1.38;;
42260;SDS011;27926;48.062;7.474;2022-07-06T13:34:01;1.10;;;0.97;;
42260;SDS011;27926;48.062;7.474;2022-07-06T13:36:26;1.50;;;1.10;;
42260;SDS011;27926;48.062;7.474;2022-07-06T13:38:50;6.50;;;1.33;;
42260;SDS011;27926;48.062;7.474;2022-07-06T13:41:15;2.23;;;1.07;;
42260;SDS011;27926;48.062;7.474;2022-07-06T13:43:40;5.03;;;1.30;;
42260;SDS011;27926;48.062;7.474;2022-07-06T13:46:05;11.97;;;1.50;;
42260;SDS011;27926;48.062;7.474;2022-07-06T13:48:31;1.35;;;1.25;;
42260;SDS011;27926;48.062;7.474;2022-07-06T13:50:56;3.58;;;1.30;;
42260;SDS011;27926;48.062;7.474;2022-07-06T13:53:20;1.53;;;1.03;;
42260;SDS011;27926;48.062;7.474;2022-07-06T13:55:45;7.53;;;1.40;;
42260;SDS011;27926;48.062;7.474;2022-07-06T13:58:10;4.93;;;1.20;;
42260;SDS011;27926;48.062;7.474;2022-07-06T14:00:35;2.20;;;1.20;;
42260;SDS011;27926;48.062;7.474;2022-07-06T14:03:00;2.90;;;1.60;;
42260;SDS011;27926;48.062;7.474;2022-07-06T14:05:24;3.77;;;1.37;;
42260;SDS011;27926;48.062;7.474;2022-07-06T14:07:52;10.82;;;1.45;;
42260;SDS011;27926;48.062;7.474;2022-07-06T14:10:17;3.00;;;1.60;;
42260;SDS011;27926;48.062;7.474;2022-07-06T14:12:41;3.70;;;1.63;;
42260;SDS011;27926;48.062;7.474;2022-07-06T14:15:06;1.67;;;1.10;;
42260;SDS011;27926;48.062;7.474;2022-07-06T14:17:31;1.23;;;1.08;;
42260;SDS011;27926;48.062;7.474;2022-07-06T14:19:56;4.00;;;1.47;;
42260;SDS011;27926;48.062;7.474;2022-07-06T14:22:20;1.73;;;1.10;;
42260;SDS011;27926;48.062;7.474;2022-07-06T14:24:45;2.50;;;1.27;;
42260;SDS011;27926;48.062;7.474;2022-07-06T14:27:10;3.17;;;1.33;;
42260;SDS011;27926;48.062;7.474;2022-07-06T14:29:34;4.20;;;1.33;;
42260;SDS011;27926;48.062;7.474;2022-07-06T14:31:59;1.53;;;1.03;;
42260;SDS011;27926;48.062;7.474;2022-07-06T14:34:23;8.13;;;1.20;;
42260;SDS011;27926;48.062;7.474;2022-07-06T14:36:48;1.67;;;1.03;;
42260;SDS011;27926;48.062;7.474;2022-07-06T14:39:13;4.53;;;1.40;;
42260;SDS011;27926;48.062;7.474;2022-07-06T14:41:38;2.07;;;1.20;;
42260;SDS011;27926;48.062;7.474;2022-07-06T14:44:03;3.90;;;1.00;;
42260;SDS011;27926;48.062;7.474;2022-07-06T14:46:28;1.38;;;1.00;;
42260;SDS011;27926;48.062;7.474;2022-07-06T14:48:53;2.77;;;0.87;;
42260;SDS011;27926;48.062;7.474;2022-07-06T14:51:17;10.33;;;1.53;;
42260;SDS011;27926;48.062;7.474;2022-07-06T14:53:42;7.17;;;1.50;;
42260;SDS011;27926;48.062;7.474;2022-07-06T14:56:07;1.20;;;0.70;;
42260;SDS011;27926;48.062;7.474;2022-07-06T14:58:32;7.45;;;1.27;;
42260;SDS011;27926;48.062;7.474;2022-07-06T15:00:57;5.40;;;1.30;;
42260;SDS011;27926;48.062;7.474;2022-07-06T15:03:21;2.83;;;1.00;;
42260;SDS011;27926;48.062;7.474;2022-07-06T15:05:46;3.60;;;1.20;;
42260;SDS011;27926;48.062;7.474;2022-07-06T15:08:12;0.82;;;0.82;;